Terminal Aerodrome Forecast
Issued by NWS

Home | Current Version | Previous Version | Text Only | Print | Product List | Glossary On
Versions: 1 2 3 4 5 6 7 8 9 10 11 12 13 14 15 16 17 18 19 20 21
818
FTUS41 KPHI 232342
TAFPNE
TAF
KPNE 232342Z 2400/2424 13004KT 6SM -SHRA BKN045
     FM240100 12005KT 6SM TSRA BKN020CB OVC030
      TEMPO 2401/2405 4SM -TSRA OVC010CB
     FM240800 VRB03KT P6SM VCTS OVC040CB
      TEMPO 2408/2409 4SM -SHRA OVC025
     FM240900 VRB03KT 6SM -SHRA OVC025
     FM241100 22004KT P6SM OVC080
     FM241500 35009KT P6SM BKN025
     FM241800 03008KT P6SM SCT030
     FM241900 04007KT P6SM BKN250=

USA.gov is the U.S. government's official web portal to all federal, state and local government web resources and services.